createdAt,value
2023-09-08T00:02:54.317Z,18.96
2023-09-08T00:05:52.199Z,18.91
2023-09-08T00:08:38.161Z,18.92
2023-09-08T00:11:08.460Z,18.93
2023-09-08T00:13:51.469Z,18.88
2023-09-08T00:16:22.763Z,18.86
2023-09-08T00:18:59.580Z,18.85
2023-09-08T00:21:30.950Z,18.85
2023-09-08T00:24:22.224Z,18.77
2023-09-08T00:26:51.247Z,18.76
2023-09-08T00:30:10.593Z,18.86
2023-09-08T00:33:43.008Z,18.86
2023-09-08T00:36:54.949Z,18.78
2023-09-08T00:40:27.146Z,18.83
2023-09-08T00:43:11.642Z,18.80
2023-09-08T00:46:00.470Z,18.89
2023-09-08T00:48:33.980Z,18.93
2023-09-08T00:51:39.500Z,19.00
2023-09-08T00:54:31.760Z,19.00
2023-09-08T00:57:23.502Z,19.00
2023-09-08T01:01:02.915Z,19.00
2023-09-08T01:04:34.720Z,18.96
2023-09-08T01:08:10.190Z,18.88
2023-09-08T01:11:39.481Z,18.80
2023-09-08T01:15:05.890Z,18.76
2023-09-08T01:18:07.787Z,18.71
2023-09-08T01:22:24.123Z,18.44
2023-09-08T01:26:03.221Z,18.36
2023-09-08T01:29:03.726Z,18.45
2023-09-08T01:31:53.275Z,18.43
2023-09-08T01:34:53.666Z,18.51
2023-09-08T01:38:12.986Z,18.51
2023-09-08T01:41:03.589Z,18.49
2023-09-08T01:43:59.600Z,18.50
2023-09-08T01:47:43.496Z,18.03
2023-09-08T01:50:40.399Z,17.47
2023-09-08T01:54:02.057Z,17.34
2023-09-08T01:57:42.377Z,17.25
2023-09-08T02:00:12.668Z,17.15
2023-09-08T02:02:44.106Z,17.16
2023-09-08T02:05:13.108Z,17.48
2023-09-08T02:07:43.848Z,17.58
2023-09-08T02:10:12.718Z,17.47
2023-09-08T02:13:16.694Z,17.60
2023-09-08T02:16:54.700Z,17.42
2023-09-08T02:19:54.951Z,17.19
2023-09-08T02:23:10.679Z,17.04
2023-09-08T02:26:37.441Z,17.08
2023-09-08T02:29:38.806Z,17.18
2023-09-08T02:32:15.196Z,17.21
2023-09-08T02:35:11.185Z,17.27
2023-09-08T02:37:47.668Z,17.28
2023-09-08T02:40:21.823Z,17.24
2023-09-08T02:43:16.200Z,17.10
2023-09-08T02:45:50.817Z,17.17
2023-09-08T02:48:21.037Z,17.21
2023-09-08T02:50:52.127Z,17.26
2023-09-08T02:53:27.374Z,17.25
2023-09-08T02:56:33.287Z,17.33
2023-09-08T02:59:18.043Z,17.29
2023-09-08T03:02:13.586Z,17.19
2023-09-08T03:04:44.773Z,17.15
2023-09-08T03:07:19.207Z,17.11
2023-09-08T03:09:53.569Z,17.03
2023-09-08T03:12:33.315Z,16.98
2023-09-08T03:15:04.042Z,17.06
2023-09-08T03:17:36.157Z,17.10
2023-09-08T03:20:22.221Z,17.14
2023-09-08T03:23:01.749Z,17.17
2023-09-08T03:25:37.685Z,17.18
2023-09-08T03:28:11.124Z,17.14
2023-09-08T03:30:42.435Z,17.10
2023-09-08T03:33:11.897Z,17.04
2023-09-08T03:35:44.190Z,17.10
2023-09-08T03:38:15.644Z,17.07
2023-09-08T03:40:50.154Z,17.02
2023-09-08T03:43:33.379Z,16.89
2023-09-08T03:46:26.165Z,16.86
2023-09-08T03:49:27.637Z,16.87
2023-09-08T03:52:10.658Z,16.82
2023-09-08T03:55:03.506Z,16.85
2023-09-08T03:58:01.900Z,16.91
2023-09-08T04:01:22.246Z,16.95
2023-09-08T04:04:39.908Z,16.96
2023-09-08T04:07:59.609Z,16.96
2023-09-08T04:11:41.720Z,16.83
2023-09-08T04:14:53.322Z,16.78
2023-09-08T04:17:49.547Z,16.68
2023-09-08T04:20:57.415Z,16.63
2023-09-08T04:24:20.250Z,16.59
2023-09-08T04:27:15.720Z,16.50
2023-09-08T04:30:00.712Z,16.45
2023-09-08T04:32:32.262Z,16.43
2023-09-08T04:35:10.795Z,16.47
2023-09-08T04:37:42.865Z,16.56
2023-09-08T04:40:38.128Z,16.62
2023-09-08T04:43:09.500Z,16.63
2023-09-08T04:45:41.010Z,16.63
2023-09-08T04:48:20.987Z,16.59
2023-09-08T04:51:14.930Z,16.63
2023-09-08T04:53:47.562Z,16.71
2023-09-08T04:56:41.763Z,16.85
2023-09-08T05:00:03.726Z,16.92
2023-09-08T05:03:09.403Z,17.00
2023-09-08T05:06:02.589Z,17.11
2023-09-08T05:09:29.856Z,17.22
2023-09-08T05:12:50.843Z,17.38
2023-09-08T05:15:45.742Z,17.54
2023-09-08T05:18:39.242Z,17.71
2023-09-08T05:21:47.652Z,17.89
2023-09-08T05:25:17.897Z,18.10
2023-09-08T05:28:07.094Z,18.27
2023-09-08T05:31:28.560Z,18.36
2023-09-08T05:33:57.590Z,18.47
2023-09-08T05:36:30.685Z,18.55
2023-09-08T05:39:11.565Z,18.68
2023-09-08T05:41:58.818Z,18.68
2023-09-08T05:45:07.676Z,18.78
2023-09-08T05:48:36.397Z,18.88
2023-09-08T05:51:29.352Z,18.98
2023-09-08T05:54:53.891Z,19.14
2023-09-08T05:58:12.232Z,19.27
2023-09-08T06:01:15.335Z,19.35
2023-09-08T06:04:35.015Z,19.39
2023-09-08T06:07:39.086Z,19.34
2023-09-08T06:10:37.131Z,19.57
2023-09-08T06:14:10.984Z,19.68
2023-09-08T06:17:36.786Z,19.70
2023-09-08T06:20:37.986Z,19.79
2023-09-08T06:24:27.728Z,19.96
2023-09-08T06:27:29.476Z,20.02
2023-09-08T06:30:39.161Z,20.23
2023-09-08T06:34:04.358Z,20.56
2023-09-08T06:36:39.591Z,20.78
2023-09-08T06:39:27.171Z,20.85
2023-09-08T06:42:20.567Z,21.04
2023-09-08T06:45:06.660Z,21.26
2023-09-08T06:47:59.916Z,21.35
2023-09-08T06:50:42.976Z,21.55
2023-09-08T06:53:29.706Z,21.65
2023-09-08T06:56:12.037Z,21.83
2023-09-08T06:58:43.222Z,22.08
2023-09-08T07:01:12.176Z,22.05
2023-09-08T07:03:46.768Z,22.29
2023-09-08T07:06:38.275Z,23.45
2023-09-08T07:09:09.809Z,23.76
2023-09-08T07:11:39.193Z,24.17
2023-09-08T07:14:40.923Z,24.76
2023-09-08T07:17:12.038Z,24.87
2023-09-08T07:20:01.234Z,25.21
2023-09-08T07:22:39.224Z,25.43
2023-09-08T07:25:17.153Z,25.88
2023-09-08T07:28:50.766Z,26.43
2023-09-08T07:32:26.511Z,27.02
2023-09-08T07:36:19.248Z,27.36
2023-09-08T07:40:08.619Z,28.00
2023-09-08T07:43:34.379Z,28.44
2023-09-08T07:46:12.545Z,29.28
2023-09-08T07:48:49.184Z,29.67
2023-09-08T07:51:25.361Z,29.76
2023-09-08T07:54:58.846Z,30.09
2023-09-08T07:58:48.171Z,30.47
2023-09-08T08:02:37.596Z,30.86
2023-09-08T08:06:28.517Z,30.44
2023-09-08T08:10:17.873Z,30.19
2023-09-08T08:13:12.550Z,30.11
2023-09-08T08:16:10.240Z,30.73
2023-09-08T08:18:39.918Z,31.49
2023-09-08T08:21:09.447Z,31.54
2023-09-08T08:23:58.247Z,31.81
2023-09-08T08:27:11.073Z,31.90
2023-09-08T08:30:59.890Z,32.11
2023-09-08T08:33:46.691Z,31.46
2023-09-08T08:36:58.736Z,31.97
2023-09-08T08:40:36.664Z,32.26
2023-09-08T08:44:19.507Z,32.31
2023-09-08T08:47:59.920Z,32.62
2023-09-08T08:51:49.273Z,32.55
2023-09-08T08:55:38.684Z,32.64
2023-09-08T08:58:58.314Z,32.47
2023-09-08T09:02:02.702Z,32.15
2023-09-08T09:05:46.639Z,32.59
2023-09-08T09:08:51.144Z,32.98
2023-09-08T09:11:46.838Z,32.90
2023-09-08T09:15:05.983Z,33.33
2023-09-08T09:18:07.300Z,33.26
2023-09-08T09:21:27.378Z,32.74
2023-09-08T09:25:01.409Z,32.21
2023-09-08T09:27:50.094Z,32.65
2023-09-08T09:31:23.561Z,33.09
2023-09-08T09:35:12.922Z,33.78
2023-09-08T09:38:28.800Z,33.76
2023-09-08T09:41:18.559Z,33.68
2023-09-08T09:44:57.719Z,34.14
2023-09-08T09:48:39.620Z,34.27
2023-09-08T09:52:18.203Z,33.42
2023-09-08T09:55:53.243Z,33.85
2023-09-08T09:59:43.567Z,34.06
2023-09-08T10:03:32.942Z,33.95
2023-09-08T10:07:08.689Z,33.16
2023-09-08T10:10:18.972Z,33.35
2023-09-08T10:17:33.238Z,34.10
2023-09-08T10:20:55.013Z,34.39
2023-09-08T10:24:47.204Z,34.34
2023-09-08T10:28:25.423Z,34.77
2023-09-08T10:32:15.197Z,34.51
2023-09-08T10:36:04.414Z,35.25
2023-09-08T10:40:08.666Z,34.85
2023-09-08T10:44:01.784Z,34.09
2023-09-08T10:47:39.500Z,34.42
2023-09-08T10:51:11.227Z,34.93
2023-09-08T10:55:01.740Z,34.50
2023-09-08T10:58:36.974Z,34.71
2023-09-08T11:01:35.325Z,35.49
2023-09-08T11:04:28.327Z,35.70
2023-09-08T11:07:44.292Z,35.39
2023-09-08T11:11:17.114Z,35.64
2023-09-08T11:14:46.186Z,34.51
2023-09-08T11:18:27.194Z,35.14
2023-09-08T11:21:58.038Z,35.57
2023-09-08T11:25:33.590Z,36.21
2023-09-08T11:29:24.117Z,36.61
2023-09-08T11:33:14.814Z,36.10
2023-09-08T11:37:03.998Z,36.24
2023-09-08T11:40:48.247Z,35.63
2023-09-08T11:44:37.640Z,35.94
2023-09-08T11:48:27.068Z,36.58
2023-09-08T11:52:16.318Z,36.75
2023-09-08T11:55:39.107Z,36.49
2023-09-08T11:59:27.498Z,37.09
2023-09-08T12:02:44.870Z,37.56
2023-09-08T12:06:23.036Z,36.10
2023-09-08T12:09:42.756Z,35.46
2023-09-08T12:13:32.353Z,35.61
2023-09-08T12:17:16.535Z,36.32
2023-09-08T12:21:05.990Z,37.08
2023-09-08T12:24:44.031Z,37.70
2023-09-08T12:28:34.788Z,37.47
2023-09-08T12:32:19.000Z,37.48
2023-09-08T12:35:52.877Z,36.63
2023-09-08T12:39:05.849Z,37.14
2023-09-08T12:42:18.722Z,37.16
2023-09-08T12:45:58.180Z,37.38
2023-09-08T12:49:31.211Z,37.28
2023-09-08T12:53:21.817Z,37.40
2023-09-08T12:57:11.848Z,36.74
2023-09-08T13:01:01.413Z,35.80
2023-09-08T13:04:51.313Z,36.65
2023-09-08T13:08:29.642Z,37.24
2023-09-08T13:12:20.315Z,37.30
2023-09-08T13:16:11.836Z,37.47
2023-09-08T13:20:01.352Z,37.70
2023-09-08T13:23:33.979Z,37.11
2023-09-08T13:27:15.891Z,37.62
2023-09-08T13:31:11.753Z,37.56
2023-09-08T13:35:01.422Z,37.65
2023-09-08T13:38:53.728Z,37.70
2023-09-08T13:42:48.948Z,37.51
2023-09-08T13:46:38.660Z,37.73
2023-09-08T13:50:28.186Z,38.00
2023-09-08T13:54:19.344Z,37.77
2023-09-08T13:58:09.946Z,38.13
2023-09-08T14:05:56.054Z,38.28
2023-09-08T14:17:40.636Z,38.38
2023-09-08T14:21:51.926Z,38.44
2023-09-08T14:25:44.781Z,38.12
2023-09-08T14:29:40.281Z,38.02
2023-09-08T14:33:31.420Z,37.96
2023-09-08T14:37:04.552Z,37.79
2023-09-08T14:40:48.096Z,38.26
2023-09-08T14:44:37.380Z,37.84
2023-09-08T14:48:38.122Z,38.36
2023-09-08T14:52:32.025Z,37.88
2023-09-08T14:56:22.015Z,38.11
2023-09-08T15:00:14.185Z,38.50
2023-09-08T15:04:06.808Z,38.16
2023-09-08T15:08:01.965Z,38.01
2023-09-08T15:12:38.622Z,38.61
2023-09-08T15:16:29.254Z,38.56
2023-09-08T15:20:26.801Z,38.49
2023-09-08T15:24:39.422Z,38.50
2023-09-08T15:28:48.360Z,39.13
2023-09-08T15:32:54.817Z,39.07
2023-09-08T15:37:02.800Z,39.01
2023-09-08T15:41:11.616Z,38.57
2023-09-08T15:45:18.615Z,38.09
2023-09-08T15:49:09.177Z,37.74
2023-09-08T15:53:05.736Z,38.05
2023-09-08T15:56:57.366Z,38.14
2023-09-08T16:01:10.283Z,38.44
2023-09-08T16:05:20.701Z,37.91
2023-09-08T16:09:34.467Z,37.17
2023-09-08T16:13:43.748Z,36.83
2023-09-08T16:17:37.572Z,35.74
2023-09-08T16:21:46.970Z,35.59
2023-09-08T16:25:36.146Z,35.44
2023-09-08T16:29:44.287Z,34.96
2023-09-08T16:33:53.133Z,34.52
2023-09-08T16:38:03.756Z,34.22
2023-09-08T16:42:04.380Z,33.58
2023-09-08T16:46:14.756Z,32.87
2023-09-08T16:50:23.253Z,31.98
2023-09-08T16:54:51.656Z,31.48
2023-09-08T16:59:03.834Z,31.21
2023-09-08T17:03:32.476Z,30.69
2023-09-08T17:07:52.270Z,29.90
2023-09-08T17:12:20.600Z,29.26
2023-09-08T17:16:47.405Z,28.89
2023-09-08T17:21:24.292Z,28.43
2023-09-08T17:25:33.916Z,28.11
2023-09-08T17:29:59.734Z,27.94
2023-09-08T17:34:09.754Z,27.91
2023-09-08T17:38:36.425Z,27.47
2023-09-08T17:42:47.279Z,27.06
2023-09-08T17:47:16.314Z,26.72
2023-09-08T17:51:45.415Z,26.59
2023-09-08T17:55:54.465Z,26.19
2023-09-08T18:00:24.269Z,25.48
2023-09-08T18:04:34.131Z,25.33
2023-09-08T18:09:03.513Z,24.92
2023-09-08T18:13:32.017Z,24.50
2023-09-08T18:18:00.037Z,24.35
2023-09-08T18:22:28.679Z,24.27
2023-09-08T18:26:56.712Z,24.23
2023-09-08T18:31:07.958Z,24.10
2023-09-08T18:35:36.259Z,23.90
2023-09-08T18:40:04.338Z,23.72
2023-09-08T18:44:33.340Z,23.54
2023-09-08T18:49:05.040Z,23.34
2023-09-08T18:53:37.860Z,23.10
2023-09-08T18:58:06.694Z,22.92
2023-09-08T19:02:37.098Z,22.80
2023-09-08T19:07:06.371Z,22.76
2023-09-08T19:11:38.223Z,22.64
2023-09-08T19:16:06.632Z,22.26
2023-09-08T19:20:36.211Z,22.03
2023-09-08T19:25:05.425Z,21.97
2023-09-08T19:29:35.434Z,21.91
2023-09-08T19:34:06.487Z,21.99
2023-09-08T19:38:35.589Z,21.93
2023-09-08T19:42:46.772Z,21.85
2023-09-08T19:47:15.734Z,21.86
2023-09-08T19:51:47.534Z,21.59
2023-09-08T19:56:19.279Z,21.35
2023-09-08T20:00:48.397Z,21.21
2023-09-08T20:05:17.792Z,20.94
2023-09-08T20:09:46.155Z,20.82
2023-09-08T20:14:15.208Z,20.69
2023-09-08T20:18:48.944Z,20.42
2023-09-08T20:23:17.534Z,20.53
2023-09-08T20:27:48.505Z,20.55
2023-09-08T20:32:15.743Z,20.51
2023-09-08T20:36:44.979Z,20.41
2023-09-08T20:41:14.462Z,20.27
2023-09-08T20:45:44.596Z,20.23
2023-09-08T20:50:15.586Z,20.04
2023-09-08T20:54:45.856Z,19.77
2023-09-08T20:59:16.196Z,19.63
2023-09-08T21:03:44.780Z,19.64
2023-09-08T21:08:13.255Z,19.65
2023-09-08T21:12:41.826Z,19.71
2023-09-08T21:17:10.897Z,19.82
2023-09-08T21:21:39.732Z,19.73
2023-09-08T21:26:08.405Z,19.74
2023-09-08T21:42:57.989Z,19.47
2023-09-08T21:46:09.917Z,19.26
2023-09-08T21:50:01.371Z,19.14
2023-09-08T21:53:31.330Z,18.98
2023-09-08T21:56:34.834Z,19.00
2023-09-08T21:59:45.708Z,18.97
2023-09-08T22:03:08.203Z,18.89
2023-09-08T22:06:34.869Z,18.91
2023-09-08T22:10:08.993Z,18.92
2023-09-08T22:13:23.117Z,19.08
2023-09-08T22:16:19.754Z,19.14
2023-09-08T22:19:55.304Z,18.88
2023-09-08T22:23:37.196Z,18.74
2023-09-08T22:27:20.294Z,18.63
2023-09-08T22:31:02.518Z,18.62
2023-09-08T22:34:53.629Z,18.69
2023-09-08T22:38:33.415Z,18.66
2023-09-08T22:42:26.587Z,18.61
2023-09-08T22:45:53.700Z,18.60
2023-09-08T22:49:22.476Z,18.48
2023-09-08T22:53:04.944Z,18.40
2023-09-08T22:56:55.107Z,18.54
2023-09-08T23:00:47.552Z,18.73
2023-09-08T23:04:34.098Z,18.66
2023-09-08T23:08:24.744Z,18.77
2023-09-08T23:12:20.041Z,18.77
2023-09-08T23:16:13.911Z,18.75
2023-09-08T23:19:58.049Z,18.71
2023-09-08T23:23:12.813Z,18.62
2023-09-08T23:26:17.205Z,18.62
2023-09-08T23:30:00.104Z,18.68
2023-09-08T23:33:02.365Z,18.72
2023-09-08T23:36:31.841Z,18.76
2023-09-08T23:40:16.010Z,18.83
2023-09-08T23:44:06.992Z,18.78
2023-09-08T23:47:56.653Z,18.70
2023-09-08T23:51:49.832Z,18.46
2023-09-08T23:55:40.776Z,18.43
2023-09-08T23:59:15.955Z,18.49
